createdAt,value
2024-05-09T00:01:31.467Z,8.76
2024-05-09T00:04:02.166Z,8.73
2024-05-09T00:06:35.171Z,8.64
2024-05-09T00:09:05.015Z,8.58
2024-05-09T00:11:34.919Z,8.52
2024-05-09T00:14:05.163Z,8.48
2024-05-09T00:16:35.172Z,8.44
2024-05-09T00:19:05.556Z,8.39
2024-05-09T00:21:38.057Z,8.30
2024-05-09T00:24:08.180Z,8.17
2024-05-09T00:26:38.719Z,8.06
2024-05-09T00:29:08.945Z,7.93
2024-05-09T00:31:38.707Z,7.81
2024-05-09T00:34:08.767Z,7.65
2024-05-09T00:36:41.292Z,7.49
2024-05-09T00:39:11.041Z,7.32
2024-05-09T00:41:40.827Z,7.19
2024-05-09T00:44:11.092Z,7.10
2024-05-09T00:46:41.160Z,7.03
2024-05-09T00:49:11.959Z,6.96
2024-05-09T00:51:45.170Z,6.91
2024-05-09T00:54:15.394Z,6.87
2024-05-09T00:56:45.773Z,6.82
2024-05-09T00:59:15.633Z,6.80
2024-05-09T01:01:46.078Z,6.75
2024-05-09T01:04:16.653Z,6.70
2024-05-09T01:06:50.545Z,6.62
2024-05-09T01:09:20.252Z,6.54
2024-05-09T01:11:50.174Z,6.47
2024-05-09T01:14:20.042Z,6.47
2024-05-09T01:16:49.858Z,6.45
2024-05-09T01:19:26.203Z,6.40
2024-05-09T01:21:58.898Z,6.38
2024-05-09T01:24:32.815Z,6.34
2024-05-09T01:27:02.501Z,6.26
2024-05-09T01:29:32.680Z,6.15
2024-05-09T01:34:34.089Z,5.95
2024-05-09T01:37:04.102Z,5.85
2024-05-09T01:39:37.302Z,5.75
2024-05-09T01:42:07.819Z,5.64
2024-05-09T01:44:37.690Z,5.56
2024-05-09T01:47:08.259Z,5.45
2024-05-09T01:49:39.061Z,5.36
2024-05-09T01:52:09.323Z,5.31
2024-05-09T01:54:41.572Z,5.25
2024-05-09T01:57:11.260Z,5.18
2024-05-09T01:59:40.963Z,5.14
2024-05-09T02:02:10.805Z,5.11
2024-05-09T02:04:40.994Z,5.05
2024-05-09T02:07:10.952Z,5.03
2024-05-09T02:09:43.995Z,5.01
2024-05-09T02:12:14.918Z,4.99
2024-05-09T02:14:42.134Z,4.92
2024-05-09T02:17:12.344Z,4.88
2024-05-09T02:19:41.956Z,4.85
2024-05-09T02:22:11.651Z,4.80
2024-05-09T02:24:45.072Z,4.72
2024-05-09T02:27:16.319Z,4.63
2024-05-09T02:29:47.902Z,4.58
2024-05-09T02:32:17.852Z,4.49
2024-05-09T02:34:45.233Z,4.45
2024-05-09T02:37:15.026Z,4.41
2024-05-09T02:39:44.773Z,4.38
2024-05-09T02:42:14.626Z,4.38
2024-05-09T02:44:41.698Z,4.34
2024-05-09T02:47:11.693Z,4.29
2024-05-09T02:49:39.351Z,4.23
2024-05-09T02:52:09.614Z,4.17
2024-05-09T02:54:36.753Z,4.08
2024-05-09T02:57:09.300Z,4.03
2024-05-09T02:59:36.492Z,3.98
2024-05-09T03:02:06.492Z,3.94
2024-05-09T03:04:34.371Z,3.92
2024-05-09T03:07:04.311Z,3.89
2024-05-09T03:09:31.536Z,3.86
2024-05-09T03:12:02.785Z,3.77
2024-05-09T03:14:33.041Z,3.71
2024-05-09T03:17:02.804Z,3.65
2024-05-09T03:19:30.389Z,3.61
2024-05-09T03:22:01.594Z,3.56
2024-05-09T03:24:29.106Z,3.56
2024-05-09T03:26:58.715Z,3.61
2024-05-09T03:29:26.129Z,3.61
2024-05-09T03:31:58.834Z,3.64
2024-05-09T03:34:26.261Z,3.66
2024-05-09T03:36:55.888Z,3.69
2024-05-09T03:39:25.628Z,3.68
2024-05-09T03:41:55.434Z,3.70
2024-05-09T03:44:25.422Z,3.75
2024-05-09T03:46:58.255Z,3.76
2024-05-09T03:49:25.627Z,3.79
2024-05-09T03:51:55.989Z,3.83
2024-05-09T03:54:24.822Z,3.90
2024-05-09T03:56:54.894Z,3.93
2024-05-09T03:59:22.237Z,3.96
2024-05-09T04:01:52.190Z,4.01
2024-05-09T04:04:22.494Z,4.12
2024-05-09T04:06:52.463Z,4.23
2024-05-09T04:09:19.587Z,4.35
2024-05-09T04:11:49.823Z,4.43
2024-05-09T04:14:17.478Z,4.56
2024-05-09T04:16:47.641Z,4.66
2024-05-09T04:19:15.654Z,4.73
2024-05-09T04:21:48.354Z,4.71
2024-05-09T04:24:16.284Z,4.70
2024-05-09T04:26:46.337Z,4.72
2024-05-09T04:29:13.927Z,4.77
2024-05-09T04:31:44.090Z,4.82
2024-05-09T04:34:11.747Z,4.92
2024-05-09T04:36:44.383Z,5.04
2024-05-09T04:39:15.010Z,5.17
2024-05-09T04:41:44.836Z,5.33
2024-05-09T04:44:12.283Z,5.50
2024-05-09T04:46:42.383Z,5.68
2024-05-09T04:49:09.704Z,5.86
2024-05-09T04:51:39.702Z,6.06
2024-05-09T04:54:10.723Z,6.33
2024-05-09T04:56:46.045Z,6.55
2024-05-09T04:59:13.606Z,6.74
2024-05-09T05:01:43.848Z,6.92
2024-05-09T05:04:11.490Z,7.12
2024-05-09T05:06:41.438Z,7.28
2024-05-09T05:09:09.191Z,7.43
2024-05-09T05:11:39.060Z,7.52
2024-05-09T05:14:08.921Z,7.60
2024-05-09T05:16:38.880Z,7.70
2024-05-09T05:19:09.012Z,7.82
2024-05-09T05:21:40.629Z,7.97
2024-05-09T05:24:08.504Z,8.13
2024-05-09T05:26:39.224Z,8.28
2024-05-09T05:29:09.222Z,8.45
2024-05-09T05:31:39.137Z,8.59
2024-05-09T05:34:06.422Z,8.76
2024-05-09T05:36:36.413Z,8.89
2024-05-09T05:39:03.813Z,9.05
2024-05-09T05:41:33.725Z,9.25
2024-05-09T05:44:01.024Z,9.41
2024-05-09T05:46:33.412Z,9.59
2024-05-09T05:49:00.710Z,9.75
2024-05-09T05:51:30.453Z,9.93
2024-05-09T05:53:58.536Z,10.11
2024-05-09T05:56:29.018Z,10.33
2024-05-09T05:58:56.244Z,10.56
2024-05-09T06:01:26.286Z,10.75
2024-05-09T06:03:56.573Z,10.94
2024-05-09T06:06:26.368Z,11.13
2024-05-09T06:08:54.960Z,11.31
2024-05-09T06:11:25.005Z,11.40
2024-05-09T06:13:52.216Z,11.65
2024-05-09T06:16:23.349Z,11.88
2024-05-09T06:18:50.650Z,12.09
2024-05-09T06:21:23.475Z,12.28
2024-05-09T06:23:50.590Z,12.42
2024-05-09T06:26:21.727Z,12.55
2024-05-09T06:28:49.108Z,12.65
2024-05-09T06:31:19.021Z,12.79
2024-05-09T06:33:46.795Z,12.95
2024-05-09T06:36:16.780Z,13.01
2024-05-09T06:38:46.671Z,13.18
2024-05-09T06:41:17.212Z,13.36
2024-05-09T06:43:44.600Z,13.43
2024-05-09T06:46:14.409Z,13.60
2024-05-09T06:48:42.403Z,13.79
2024-05-09T06:51:12.451Z,13.99
2024-05-09T06:53:41.362Z,14.17
2024-05-09T06:56:13.978Z,14.40
2024-05-09T06:58:41.260Z,14.46
2024-05-09T07:01:11.050Z,14.55
2024-05-09T07:03:38.337Z,14.67
2024-05-09T07:06:08.465Z,14.59
2024-05-09T07:08:35.697Z,14.72
2024-05-09T07:11:05.766Z,14.74
2024-05-09T07:13:35.872Z,14.88
2024-05-09T07:16:05.757Z,14.96
2024-05-09T07:18:33.380Z,15.23
2024-05-09T07:21:03.445Z,15.51
2024-05-09T07:23:31.394Z,15.82
2024-05-09T07:26:01.510Z,15.99
2024-05-09T07:28:29.098Z,15.98
2024-05-09T07:31:01.648Z,16.15
2024-05-09T07:33:29.184Z,16.44
2024-05-09T07:35:59.638Z,16.62
2024-05-09T07:38:27.213Z,16.81
2024-05-09T07:40:57.595Z,16.78
2024-05-09T07:43:25.005Z,16.64
2024-05-09T07:45:57.282Z,16.92
2024-05-09T07:50:01.148Z,17.15
2024-05-09T07:53:53.255Z,17.74
2024-05-09T07:56:26.283Z,18.01
2024-05-09T07:58:54.426Z,18.25
2024-05-09T08:01:26.617Z,18.39
2024-05-09T08:03:57.199Z,18.45
2024-05-09T08:06:27.461Z,18.52
2024-05-09T08:08:55.331Z,18.50
2024-05-09T08:11:26.103Z,18.69
2024-05-09T08:13:53.518Z,18.83
2024-05-09T08:16:23.937Z,19.01
2024-05-09T08:18:51.574Z,19.05
2024-05-09T08:21:24.435Z,19.32
2024-05-09T08:23:51.974Z,19.61
2024-05-09T08:26:22.003Z,19.56
2024-05-09T08:28:49.607Z,19.57
2024-05-09T08:31:19.550Z,19.64
2024-05-09T08:33:48.097Z,19.76
2024-05-09T08:36:18.559Z,19.90
2024-05-09T08:38:48.320Z,20.25
2024-05-09T08:41:18.315Z,20.54
2024-05-09T08:43:46.943Z,20.81
2024-05-09T08:46:18.685Z,20.87
2024-05-09T08:48:49.920Z,21.01
2024-05-09T08:51:20.197Z,21.18
2024-05-09T08:53:50.231Z,21.53
2024-05-09T08:56:23.148Z,21.60
2024-05-09T08:58:55.879Z,21.52
2024-05-09T09:01:27.075Z,21.52
2024-05-09T09:03:55.340Z,21.76
2024-05-09T09:06:27.220Z,21.80
2024-05-09T09:08:57.356Z,21.70
2024-05-09T09:11:27.329Z,21.73
2024-05-09T09:13:54.599Z,22.04
2024-05-09T09:16:35.348Z,22.22
2024-05-09T09:19:03.474Z,22.40
2024-05-09T09:21:33.863Z,22.59
2024-05-09T09:24:04.051Z,22.64
2024-05-09T09:26:34.226Z,22.80
2024-05-09T09:29:02.026Z,22.99
2024-05-09T09:31:33.822Z,22.72
2024-05-09T09:34:07.228Z,22.63
2024-05-09T09:36:38.867Z,22.74
2024-05-09T09:39:10.082Z,22.87
2024-05-09T09:41:40.928Z,22.57
2024-05-09T09:44:09.985Z,22.55
2024-05-09T09:46:41.030Z,22.66
2024-05-09T09:49:09.464Z,22.24
2024-05-09T09:51:43.772Z,22.27
2024-05-09T09:54:15.191Z,22.72
2024-05-09T09:56:48.553Z,23.15
2024-05-09T09:59:17.228Z,23.33
2024-05-09T10:01:49.185Z,23.62
2024-05-09T10:04:18.890Z,23.65
2024-05-09T10:06:52.823Z,23.81
2024-05-09T10:09:23.169Z,24.00
2024-05-09T10:11:59.963Z,24.00
2024-05-09T10:14:31.047Z,24.02
2024-05-09T10:17:07.496Z,23.78
2024-05-09T10:19:35.370Z,23.81
2024-05-09T10:22:06.139Z,23.70
2024-05-09T10:24:50.479Z,23.41
2024-05-09T10:27:29.284Z,23.79
2024-05-09T10:29:57.748Z,24.44
2024-05-09T10:32:30.001Z,24.35
2024-05-09T10:35:01.091Z,24.31
2024-05-09T10:37:31.474Z,24.29
2024-05-09T10:40:03.250Z,24.09
2024-05-09T10:42:34.351Z,23.86
2024-05-09T10:45:02.394Z,24.05
2024-05-09T10:47:33.078Z,24.72
2024-05-09T10:50:00.837Z,24.60
2024-05-09T10:52:31.053Z,24.78
2024-05-09T10:55:00.356Z,24.87
2024-05-09T10:57:41.024Z,24.72
2024-05-09T11:00:15.624Z,24.76
2024-05-09T11:02:50.870Z,24.50
2024-05-09T11:05:18.353Z,24.34
2024-05-09T11:07:48.550Z,24.77
2024-05-09T11:10:24.369Z,24.91
2024-05-09T11:13:00.087Z,25.02
2024-05-09T11:15:37.961Z,25.22
2024-05-09T11:18:08.285Z,25.78
2024-05-09T11:20:35.842Z,25.83
2024-05-09T11:23:07.756Z,25.63
2024-05-09T11:25:35.327Z,25.47
2024-05-09T11:28:11.873Z,25.17
2024-05-09T11:30:39.284Z,24.77
2024-05-09T11:33:09.237Z,24.89
2024-05-09T11:35:36.565Z,24.68
2024-05-09T11:38:07.976Z,24.65
2024-05-09T11:40:35.409Z,25.37
2024-05-09T11:43:08.201Z,25.89
2024-05-09T11:45:35.467Z,26.13
2024-05-09T11:48:06.933Z,26.09
2024-05-09T11:50:35.967Z,25.85
2024-05-09T11:53:06.243Z,25.91
2024-05-09T11:58:08.812Z,25.91
2024-05-09T12:00:37.632Z,25.98
2024-05-09T12:03:08.726Z,25.82
2024-05-09T12:05:36.304Z,25.61
2024-05-09T12:08:06.812Z,25.33
2024-05-09T12:10:36.147Z,25.29
2024-05-09T12:13:09.426Z,25.34
2024-05-09T12:15:38.283Z,25.00
2024-05-09T12:18:09.144Z,24.94
2024-05-09T12:20:39.196Z,24.97
2024-05-09T12:23:11.201Z,25.07
2024-05-09T12:25:39.915Z,24.87
2024-05-09T12:28:13.132Z,25.03
2024-05-09T12:30:41.628Z,25.23
2024-05-09T12:33:13.530Z,25.23
2024-05-09T12:35:44.527Z,24.97
2024-05-09T12:38:16.753Z,25.26
2024-05-09T12:40:44.282Z,25.95
2024-05-09T12:43:16.984Z,26.12
2024-05-09T12:45:44.811Z,26.39
2024-05-09T12:48:14.891Z,26.31
2024-05-09T12:50:42.541Z,26.14
2024-05-09T12:53:13.107Z,25.98
2024-05-09T12:55:48.371Z,25.96
2024-05-09T12:58:27.258Z,26.01
2024-05-09T13:00:54.918Z,26.05
2024-05-09T13:03:25.219Z,26.15
2024-05-09T13:05:53.980Z,26.22
2024-05-09T13:08:24.127Z,25.97
2024-05-09T13:10:51.558Z,25.45
2024-05-09T13:13:21.842Z,25.11
2024-05-09T13:15:51.784Z,25.13
2024-05-09T13:18:21.582Z,25.25
2024-05-09T13:20:48.985Z,25.31
2024-05-09T13:23:18.995Z,25.41
2024-05-09T13:25:46.544Z,25.50
2024-05-09T13:28:17.196Z,25.48
2024-05-09T13:30:44.599Z,25.75
2024-05-09T13:33:18.019Z,25.97
2024-05-09T13:35:49.510Z,25.82
2024-05-09T13:38:22.607Z,25.66
2024-05-09T13:40:50.706Z,25.50
2024-05-09T13:43:22.300Z,25.38
2024-05-09T13:45:50.261Z,25.31
2024-05-09T13:48:23.272Z,25.25
2024-05-09T13:50:51.032Z,25.17
2024-05-09T13:53:21.220Z,25.17
2024-05-09T13:55:48.779Z,25.09
2024-05-09T13:58:19.168Z,25.08
2024-05-09T14:00:49.019Z,25.05
2024-05-09T14:03:22.419Z,24.87
2024-05-09T14:05:52.688Z,24.72
2024-05-09T14:08:22.331Z,24.58
2024-05-09T14:10:53.766Z,24.36
2024-05-09T14:13:21.350Z,24.01
2024-05-09T14:15:51.637Z,23.87
2024-05-09T14:18:21.752Z,23.90
2024-05-09T14:20:51.797Z,24.07
2024-05-09T14:23:19.061Z,24.16
2024-05-09T14:25:52.177Z,24.02
2024-05-09T14:28:20.588Z,23.85
2024-05-09T14:30:50.806Z,23.38
2024-05-09T14:33:23.682Z,23.02
2024-05-09T14:35:56.814Z,22.73
2024-05-09T14:38:24.647Z,22.66
2024-05-09T14:40:54.662Z,22.73
2024-05-09T14:43:22.191Z,22.68
2024-05-09T14:45:53.353Z,22.64
2024-05-09T14:48:21.278Z,22.60
2024-05-09T14:50:51.407Z,22.52
2024-05-09T14:53:23.511Z,22.56
2024-05-09T14:55:54.573Z,22.51
2024-05-09T14:58:23.472Z,22.35
2024-05-09T15:00:54.507Z,22.22
2024-05-09T15:03:23.217Z,22.21
2024-05-09T15:05:53.695Z,22.14
2024-05-09T15:08:23.683Z,22.07
2024-05-09T15:10:53.530Z,22.03
2024-05-09T15:13:21.748Z,22.01
2024-05-09T15:15:51.434Z,22.02
2024-05-09T15:18:19.759Z,22.05
2024-05-09T15:20:50.230Z,22.02
2024-05-09T15:23:17.533Z,21.83
2024-05-09T15:25:50.576Z,21.77
2024-05-09T15:28:19.011Z,21.69
2024-05-09T15:30:50.040Z,21.62
2024-05-09T15:33:17.826Z,21.40
2024-05-09T15:35:49.461Z,21.14
2024-05-09T15:38:18.652Z,20.84
2024-05-09T15:40:51.575Z,20.63
2024-05-09T15:43:18.986Z,20.58
2024-05-09T15:45:49.207Z,20.62
2024-05-09T15:48:17.479Z,20.63
2024-05-09T15:50:47.345Z,20.63
2024-05-09T15:53:14.922Z,20.59
2024-05-09T15:55:45.385Z,20.53
2024-05-09T15:58:15.947Z,20.52
2024-05-09T16:00:48.742Z,20.38
2024-05-09T16:03:18.326Z,20.30
2024-05-09T16:05:49.155Z,20.23
2024-05-09T16:08:16.909Z,20.17
2024-05-09T16:10:48.196Z,20.14
2024-05-09T16:13:19.772Z,20.08
2024-05-09T16:15:50.450Z,20.04
2024-05-09T16:18:19.766Z,19.92
2024-05-09T16:20:51.024Z,19.84
2024-05-09T16:23:18.874Z,19.71
2024-05-09T16:25:51.764Z,19.59
2024-05-09T16:28:23.874Z,19.49
2024-05-09T16:30:54.538Z,19.48
2024-05-09T16:33:24.036Z,19.46
2024-05-09T16:35:55.332Z,19.42
2024-05-09T16:38:23.240Z,19.39
2024-05-09T16:40:53.179Z,19.31
2024-05-09T16:43:24.330Z,19.22
2024-05-09T16:45:54.922Z,19.12
2024-05-09T16:48:22.723Z,19.06
2024-05-09T16:50:52.709Z,18.99
2024-05-09T16:53:20.971Z,18.83
2024-05-09T16:55:51.085Z,18.68
2024-05-09T16:58:19.081Z,18.57
2024-05-09T17:00:53.057Z,18.51
2024-05-09T17:03:23.685Z,18.49
2024-05-09T17:05:54.026Z,18.41
2024-05-09T17:08:21.291Z,18.33
2024-05-09T17:10:51.941Z,18.25
2024-05-09T17:13:19.860Z,18.17
2024-05-09T17:15:53.022Z,18.07
2024-05-09T17:18:23.201Z,17.96
2024-05-09T17:20:54.062Z,17.85
2024-05-09T17:23:21.424Z,17.71
2024-05-09T17:25:51.208Z,17.61
2024-05-09T17:28:18.841Z,17.50
2024-05-09T17:30:49.027Z,17.31
2024-05-09T17:33:19.485Z,17.09
2024-05-09T17:35:50.719Z,16.90
2024-05-09T17:38:18.884Z,16.77
2024-05-09T17:40:49.013Z,16.62
2024-05-09T17:43:16.630Z,16.48
2024-05-09T17:45:47.217Z,16.35
2024-05-09T17:48:15.193Z,16.25
2024-05-09T17:50:48.030Z,16.11
2024-05-09T17:53:15.957Z,15.94
2024-05-09T17:55:45.948Z,15.71
2024-05-09T17:58:13.407Z,15.57
2024-05-09T18:00:43.258Z,15.47
2024-05-09T18:03:12.301Z,15.33
2024-05-09T18:05:44.698Z,15.13
2024-05-09T18:08:15.064Z,15.00
2024-05-09T18:10:45.395Z,14.90
2024-05-09T18:13:13.247Z,14.81
2024-05-09T18:15:45.193Z,14.71
2024-05-09T18:18:12.929Z,14.56
2024-05-09T18:20:45.653Z,14.38
2024-05-09T18:23:19.889Z,14.20
2024-05-09T18:25:48.183Z,14.09
2024-05-09T18:28:18.540Z,14.05
2024-05-09T18:30:46.089Z,13.99
2024-05-09T18:33:16.562Z,13.93
2024-05-09T18:35:44.807Z,13.81
2024-05-09T18:38:14.934Z,13.71
2024-05-09T18:40:47.419Z,13.52
2024-05-09T18:43:22.115Z,13.46
2024-05-09T18:45:53.321Z,13.46
2024-05-09T18:48:24.493Z,13.42
2024-05-09T18:50:51.729Z,13.41
2024-05-09T18:53:22.023Z,13.32
2024-05-09T18:55:52.040Z,13.16
2024-05-09T18:58:22.643Z,13.00
2024-05-09T19:00:54.984Z,12.88
2024-05-09T19:03:23.265Z,12.90
2024-05-09T19:05:53.454Z,13.01
2024-05-09T19:08:20.778Z,13.03
2024-05-09T19:10:52.545Z,13.01
2024-05-09T19:13:22.402Z,12.99
2024-05-09T19:15:52.635Z,12.89
2024-05-09T19:18:19.998Z,12.66
2024-05-09T19:20:50.209Z,12.43
2024-05-09T19:23:17.354Z,12.27
2024-05-09T19:25:47.563Z,12.14
2024-05-09T19:28:14.785Z,11.97
2024-05-09T19:30:47.267Z,11.81
2024-05-09T19:33:15.121Z,11.63
2024-05-09T19:35:45.899Z,11.46
2024-05-09T19:38:13.324Z,11.35
2024-05-09T19:40:43.192Z,11.25
2024-05-09T19:43:11.139Z,11.16
2024-05-09T19:45:41.190Z,11.08
2024-05-09T19:48:11.311Z,11.01
2024-05-09T19:50:44.115Z,10.92
2024-05-09T19:53:13.172Z,10.82
2024-05-09T19:55:43.552Z,10.74
2024-05-09T19:58:12.041Z,10.66
2024-05-09T20:00:44.058Z,10.58
2024-05-09T20:03:15.953Z,10.48
2024-05-09T20:05:47.998Z,10.42
2024-05-09T20:08:16.928Z,10.32
2024-05-09T20:10:46.962Z,10.23
2024-05-09T20:13:14.401Z,10.14
2024-05-09T20:15:44.253Z,10.04
2024-05-09T20:18:18.004Z,9.91
2024-05-09T20:20:50.690Z,9.80
2024-05-09T20:23:19.886Z,9.67
2024-05-09T20:25:50.330Z,9.53
2024-05-09T20:28:17.577Z,9.41
2024-05-09T20:30:47.695Z,9.33
2024-05-09T20:33:17.482Z,9.21
2024-05-09T20:35:47.696Z,9.16
2024-05-09T20:38:14.901Z,9.11
2024-05-09T20:40:44.800Z,9.05
2024-05-09T20:43:13.244Z,9.05
2024-05-09T20:45:43.160Z,9.02
2024-05-09T20:48:10.635Z,8.99
2024-05-09T20:50:43.999Z,8.93
2024-05-09T20:53:14.054Z,8.87
2024-05-09T20:55:45.754Z,8.78
2024-05-09T20:58:13.549Z,8.65
2024-05-09T21:00:45.495Z,8.55
2024-05-09T21:03:16.389Z,8.48
2024-05-09T21:05:49.987Z,8.45
2024-05-09T21:08:17.426Z,8.44
2024-05-09T21:10:47.523Z,8.40
2024-05-09T21:13:14.939Z,8.34
2024-05-09T21:15:45.209Z,8.30
2024-05-09T21:18:12.439Z,8.27
2024-05-09T21:20:42.334Z,8.21
2024-05-09T21:23:12.191Z,8.13
2024-05-09T21:25:42.005Z,8.09
2024-05-09T21:28:09.460Z,8.06
2024-05-09T21:30:42.769Z,8.01
2024-05-09T21:33:13.652Z,7.95
2024-05-09T21:35:45.706Z,7.91
2024-05-09T21:38:16.042Z,7.86
2024-05-09T21:40:46.446Z,7.77
2024-05-09T21:43:14.597Z,7.72
2024-05-09T21:45:45.068Z,7.63
2024-05-09T21:48:13.459Z,7.58
2024-05-09T21:50:43.497Z,7.52
2024-05-09T21:53:11.883Z,7.45
2024-05-09T21:55:45.966Z,7.40
2024-05-09T21:58:14.224Z,7.37
2024-05-09T22:00:46.587Z,7.35
2024-05-09T22:03:15.256Z,7.29
2024-05-09T22:05:49.786Z,7.24
2024-05-09T22:08:17.307Z,7.20
2024-05-09T22:10:51.062Z,7.17
2024-05-09T22:13:20.402Z,7.12
2024-05-09T22:15:51.156Z,7.08
2024-05-09T22:18:18.969Z,7.04
2024-05-09T22:20:50.728Z,7.02
2024-05-09T22:23:18.111Z,6.94
2024-05-09T22:25:51.014Z,6.85
2024-05-09T22:28:18.852Z,6.82
2024-05-09T22:30:55.650Z,6.81
2024-05-09T22:33:22.945Z,6.80
2024-05-09T22:35:54.139Z,6.77
2024-05-09T22:38:22.458Z,6.75
2024-05-09T22:40:56.200Z,6.72
2024-05-09T22:43:25.220Z,6.68
2024-05-09T22:45:56.125Z,6.62
2024-05-09T22:48:25.320Z,6.56
2024-05-09T22:50:57.698Z,6.52
2024-05-09T22:53:25.839Z,6.48
2024-05-09T22:55:58.988Z,6.45
2024-05-09T22:58:26.321Z,6.40
2024-05-09T23:00:57.523Z,6.35
2024-05-09T23:03:25.456Z,6.25
2024-05-09T23:05:55.899Z,6.19
2024-05-09T23:08:23.380Z,6.16
2024-05-09T23:10:53.866Z,6.08
2024-05-09T23:13:23.821Z,6.06
2024-05-09T23:15:54.211Z,6.07
2024-05-09T23:18:22.229Z,6.05
2024-05-09T23:20:52.301Z,6.03
2024-05-09T23:23:20.627Z,6.00
2024-05-09T23:25:52.805Z,5.94
2024-05-09T23:28:20.321Z,5.88
2024-05-09T23:30:53.073Z,5.85
2024-05-09T23:33:20.636Z,5.78
2024-05-09T23:35:50.864Z,5.71
2024-05-09T23:38:20.916Z,5.64
2024-05-09T23:40:52.612Z,5.61
2024-05-09T23:43:20.143Z,5.58
2024-05-09T23:45:53.034Z,5.57
2024-05-09T23:48:20.222Z,5.56
2024-05-09T23:50:50.136Z,5.51
2024-05-09T23:53:17.307Z,5.42
2024-05-09T23:55:47.078Z,5.35
2024-05-09T23:58:14.262Z,5.26
